createdAt,value
2022-08-18T00:00:02.905Z,18.18
2022-08-18T00:01:09.743Z,18.17
2022-08-18T00:02:16.834Z,18.18
2022-08-18T00:03:56.673Z,18.20
2022-08-18T00:05:00.807Z,18.19
2022-08-18T00:06:07.151Z,18.17
2022-08-18T00:07:15.255Z,18.17
2022-08-18T00:08:20.746Z,18.16
2022-08-18T00:09:28.991Z,18.16
2022-08-18T00:10:36.338Z,18.18
2022-08-18T00:11:44.667Z,18.19
2022-08-18T00:12:48.591Z,18.22
2022-08-18T00:13:54.305Z,18.22
2022-08-18T00:15:02.538Z,18.23
2022-08-18T00:16:07.932Z,18.24
2022-08-18T00:17:12.188Z,18.24
2022-08-18T00:18:18.223Z,18.25
2022-08-18T00:19:45.746Z,18.24
2022-08-18T00:20:49.262Z,18.23
2022-08-18T00:21:53.264Z,18.23
2022-08-18T00:22:59.069Z,18.17
2022-08-18T00:24:05.768Z,18.13
2022-08-18T00:25:12.769Z,18.08
2022-08-18T00:26:16.487Z,18.07
2022-08-18T00:27:28.573Z,18.06
2022-08-18T00:28:32.654Z,18.05
2022-08-18T00:29:37.766Z,18.05
2022-08-18T00:30:41.972Z,18.04
2022-08-18T00:31:47.332Z,18.05
2022-08-18T00:32:53.605Z,18.05
2022-08-18T00:33:59.268Z,18.02
2022-08-18T00:35:08.128Z,18.01
2022-08-18T00:36:14.170Z,17.99
2022-08-18T00:37:18.225Z,17.95
2022-08-18T00:38:24.466Z,17.93
2022-08-18T00:39:35.041Z,17.89
2022-08-18T00:40:46.182Z,17.86
2022-08-18T00:41:50.368Z,17.83
2022-08-18T00:42:57.258Z,17.82
2022-08-18T00:44:01.673Z,17.79
2022-08-18T00:45:08.598Z,17.76
2022-08-18T00:46:16.692Z,17.71
2022-08-18T00:47:41.932Z,17.71
2022-08-18T00:48:49.385Z,17.69
2022-08-18T00:49:54.526Z,17.68
2022-08-18T00:51:01.267Z,17.65
2022-08-18T00:52:06.376Z,17.67
2022-08-18T00:53:19.019Z,17.65
2022-08-18T00:54:26.190Z,17.62
2022-08-18T00:55:34.793Z,17.61
2022-08-18T00:56:43.194Z,17.60
2022-08-18T00:57:49.680Z,17.54
2022-08-18T00:58:58.237Z,17.48
2022-08-18T01:00:12.152Z,17.43
2022-08-18T01:01:33.683Z,17.40
2022-08-18T01:02:41.119Z,17.41
2022-08-18T01:03:53.340Z,17.42
2022-08-18T01:05:03.107Z,17.45
2022-08-18T01:06:11.935Z,17.46
2022-08-18T01:07:20.784Z,17.48
2022-08-18T01:08:28.490Z,17.49
2022-08-18T01:09:34.361Z,17.50
2022-08-18T01:10:42.627Z,17.52
2022-08-18T01:11:47.861Z,17.51
2022-08-18T01:12:56.706Z,17.50
2022-08-18T01:14:01.280Z,17.50
2022-08-18T01:15:07.896Z,17.47
2022-08-18T01:16:56.930Z,17.39
2022-08-18T01:18:22.780Z,17.37
2022-08-18T01:19:55.174Z,17.33
2022-08-18T01:21:26.969Z,17.32
2022-08-18T01:22:35.762Z,17.29
2022-08-18T01:23:41.658Z,17.28
2022-08-18T01:25:03.890Z,17.26
2022-08-18T01:26:10.017Z,17.25
2022-08-18T01:27:18.423Z,17.23
2022-08-18T01:28:24.788Z,17.21
2022-08-18T01:29:30.398Z,17.20
2022-08-18T01:30:47.493Z,17.20
2022-08-18T01:31:56.689Z,17.19
2022-08-18T01:33:03.920Z,17.17
2022-08-18T01:34:10.418Z,17.14
2022-08-18T01:35:17.644Z,17.10
2022-08-18T01:36:23.482Z,17.09
2022-08-18T01:37:29.079Z,17.07
2022-08-18T01:38:33.258Z,17.05
2022-08-18T01:41:22.377Z,17.04
2022-08-18T01:41:26.676Z,17.00
2022-08-18T01:42:29.450Z,16.93
2022-08-18T01:43:35.327Z,16.89
2022-08-18T01:44:41.990Z,16.86
2022-08-18T01:45:47.900Z,16.84
2022-08-18T01:46:53.944Z,16.83
2022-08-18T01:48:00.081Z,16.82
2022-08-18T01:49:04.497Z,16.81
2022-08-18T01:50:11.413Z,16.80
2022-08-18T01:51:16.286Z,16.81
2022-08-18T01:52:23.258Z,16.80
2022-08-18T01:53:27.667Z,16.80
2022-08-18T01:54:33.143Z,16.79
2022-08-18T01:55:41.425Z,16.79
2022-08-18T01:56:48.816Z,16.77
2022-08-18T01:57:53.114Z,16.79
2022-08-18T01:58:58.696Z,16.78
2022-08-18T02:00:03.151Z,16.76
2022-08-18T02:01:17.450Z,16.75
2022-08-18T02:02:25.154Z,16.74
2022-08-18T02:03:32.899Z,16.73
2022-08-18T02:04:37.734Z,16.72
2022-08-18T02:05:46.369Z,16.71
2022-08-18T02:06:51.923Z,16.71
2022-08-18T02:07:57.413Z,16.71
2022-08-18T02:09:01.579Z,16.70
2022-08-18T02:10:08.038Z,16.68
2022-08-18T02:11:17.831Z,16.65
2022-08-18T02:12:24.365Z,16.63
2022-08-18T02:13:28.771Z,16.59
2022-08-18T02:14:33.831Z,16.57
2022-08-18T02:15:37.566Z,16.56
2022-08-18T02:16:46.768Z,16.57
2022-08-18T02:17:50.958Z,16.57
2022-08-18T02:18:56.767Z,16.60
2022-08-18T02:20:00.937Z,16.61
2022-08-18T02:21:11.997Z,16.62
2022-08-18T02:22:20.306Z,16.63
2022-08-18T02:23:26.768Z,16.63
2022-08-18T02:24:31.789Z,16.63
2022-08-18T02:25:36.791Z,16.63
2022-08-18T02:26:43.961Z,16.62
2022-08-18T02:27:49.240Z,16.63
2022-08-18T02:28:53.845Z,16.62
2022-08-18T02:30:02.993Z,16.63
2022-08-18T02:31:08.640Z,16.62
2022-08-18T02:32:16.720Z,16.57
2022-08-18T02:33:20.486Z,16.51
2022-08-18T02:34:25.971Z,16.44
2022-08-18T02:35:30.489Z,16.38
2022-08-18T02:36:35.724Z,16.35
2022-08-18T02:37:42.262Z,16.34
2022-08-18T02:39:00.225Z,16.34
2022-08-18T02:40:05.227Z,16.34
2022-08-18T02:41:11.869Z,16.35
2022-08-18T02:42:16.869Z,16.39
2022-08-18T02:43:21.352Z,16.41
2022-08-18T02:44:24.714Z,16.42
2022-08-18T02:45:29.242Z,16.42
2022-08-18T02:46:32.596Z,16.43
2022-08-18T02:47:37.043Z,16.44
2022-08-18T02:48:40.389Z,16.42
2022-08-18T02:49:44.710Z,16.40
2022-08-18T02:50:48.131Z,16.40
2022-08-18T02:51:53.022Z,16.37
2022-08-18T02:52:56.405Z,16.37
2022-08-18T02:54:00.934Z,16.36
2022-08-18T02:55:04.907Z,16.37
2022-08-18T02:56:40.263Z,16.37
2022-08-18T02:57:49.708Z,16.34
2022-08-18T02:58:54.961Z,16.33
2022-08-18T02:59:59.771Z,16.30
2022-08-18T03:01:03.074Z,16.29
2022-08-18T03:02:08.603Z,16.29
2022-08-18T03:03:11.968Z,16.30
2022-08-18T03:04:22.925Z,16.29
2022-08-18T03:05:30.424Z,16.27
2022-08-18T03:06:38.324Z,16.24
2022-08-18T03:07:41.602Z,16.22
2022-08-18T03:08:49.079Z,16.21
2022-08-18T03:09:53.312Z,16.22
2022-08-18T03:10:56.507Z,16.22
2022-08-18T03:12:01.274Z,16.22
2022-08-18T03:13:06.278Z,16.22
2022-08-18T03:14:11.430Z,16.22
2022-08-18T03:15:15.009Z,16.21
2022-08-18T03:16:19.853Z,16.22
2022-08-18T03:17:23.324Z,16.24
2022-08-18T03:18:27.651Z,16.25
2022-08-18T03:19:30.948Z,16.27
2022-08-18T03:20:35.410Z,16.28
2022-08-18T03:21:38.862Z,16.28
2022-08-18T03:22:44.109Z,16.27
2022-08-18T03:24:00.907Z,16.27
2022-08-18T03:25:06.767Z,16.27
2022-08-18T03:26:11.951Z,16.27
2022-08-18T03:27:16.179Z,16.27
2022-08-18T03:28:21.074Z,16.26
2022-08-18T03:29:29.533Z,16.23
2022-08-18T03:30:35.410Z,16.18
2022-08-18T03:31:40.508Z,16.17
2022-08-18T03:32:45.659Z,16.15
2022-08-18T03:33:50.501Z,16.14
2022-08-18T03:34:53.719Z,16.10
2022-08-18T03:35:57.991Z,16.08
2022-08-18T03:37:02.329Z,16.06
2022-08-18T03:38:06.159Z,16.03
2022-08-18T03:39:12.354Z,16.04
2022-08-18T03:40:15.587Z,16.05
2022-08-18T03:41:44.495Z,16.08
2022-08-18T03:42:47.568Z,16.10
2022-08-18T03:43:52.851Z,16.13
2022-08-18T03:44:57.178Z,16.15
2022-08-18T03:46:01.879Z,16.19
2022-08-18T03:47:09.493Z,16.22
2022-08-18T03:48:12.783Z,16.22
2022-08-18T03:49:18.321Z,16.23
2022-08-18T03:50:26.083Z,16.23
2022-08-18T03:51:32.390Z,16.24
2022-08-18T03:52:41.644Z,16.25
2022-08-18T03:53:45.480Z,16.24
2022-08-18T03:54:49.623Z,16.25
2022-08-18T03:55:52.631Z,16.27
2022-08-18T03:56:56.819Z,16.28
2022-08-18T03:58:03.032Z,16.28
2022-08-18T03:59:10.101Z,16.31
2022-08-18T04:00:13.558Z,16.33
2022-08-18T04:01:26.341Z,16.35
2022-08-18T04:02:30.525Z,16.35
2022-08-18T04:03:34.752Z,16.33
2022-08-18T04:04:42.910Z,16.34
2022-08-18T04:05:47.889Z,16.35
2022-08-18T04:06:55.611Z,16.38
2022-08-18T04:07:59.170Z,16.41
2022-08-18T04:09:06.372Z,16.42
2022-08-18T04:10:17.027Z,16.42
2022-08-18T04:11:23.970Z,16.44
2022-08-18T04:12:27.230Z,16.48
2022-08-18T04:13:36.445Z,16.52
2022-08-18T04:14:42.369Z,16.56
2022-08-18T04:15:46.459Z,16.61
2022-08-18T04:16:49.850Z,16.64
2022-08-18T04:18:06.012Z,16.68
2022-08-18T04:19:09.895Z,16.71
2022-08-18T04:20:14.978Z,16.73
2022-08-18T04:21:18.705Z,16.75
2022-08-18T04:22:22.961Z,16.78
2022-08-18T04:23:26.229Z,16.81
2022-08-18T04:24:33.017Z,16.86
2022-08-18T04:25:36.534Z,16.88
2022-08-18T04:26:43.401Z,16.90
2022-08-18T04:27:46.600Z,16.92
2022-08-18T04:28:50.770Z,16.92
2022-08-18T04:29:56.994Z,16.96
2022-08-18T04:31:09.103Z,17.00
2022-08-18T04:32:13.627Z,17.02
2022-08-18T04:33:17.861Z,17.07
2022-08-18T04:34:23.020Z,17.10
2022-08-18T04:35:29.341Z,17.15
2022-08-18T04:36:34.768Z,17.18
2022-08-18T04:37:50.123Z,17.20
2022-08-18T04:38:54.245Z,17.25
2022-08-18T04:40:01.115Z,17.29
2022-08-18T04:41:04.699Z,17.37
2022-08-18T04:42:09.148Z,17.42
2022-08-18T04:43:15.480Z,17.50
2022-08-18T04:44:20.487Z,17.57
2022-08-18T04:45:25.208Z,17.62
2022-08-18T04:46:30.668Z,17.70
2022-08-18T04:47:34.826Z,17.78
2022-08-18T04:48:40.889Z,17.84
2022-08-18T04:49:44.857Z,17.91
2022-08-18T04:50:49.272Z,17.98
2022-08-18T04:52:34.496Z,18.04
2022-08-18T04:53:47.208Z,18.12
2022-08-18T04:54:51.591Z,18.18
2022-08-18T04:55:56.370Z,18.24
2022-08-18T04:57:00.751Z,18.31
2022-08-18T04:58:04.998Z,18.37
2022-08-18T04:59:12.847Z,18.44
2022-08-18T05:00:17.450Z,18.51
2022-08-18T05:01:23.966Z,18.59
2022-08-18T05:02:28.326Z,18.65
2022-08-18T05:03:31.610Z,18.72
2022-08-18T05:04:36.793Z,18.80
2022-08-18T05:05:40.203Z,18.88
2022-08-18T05:06:45.809Z,18.94
2022-08-18T05:07:49.331Z,19.02
2022-08-18T05:08:54.628Z,19.10
2022-08-18T05:09:58.030Z,19.18
2022-08-18T05:11:04.316Z,19.24
2022-08-18T05:12:09.141Z,19.33
2022-08-18T05:13:16.921Z,19.40
2022-08-18T05:14:20.550Z,19.45
2022-08-18T05:15:28.502Z,19.51
2022-08-18T05:16:36.181Z,19.59
2022-08-18T05:17:50.855Z,19.65
2022-08-18T05:18:55.034Z,19.72
2022-08-18T05:20:01.898Z,19.80
2022-08-18T05:21:14.493Z,19.90
2022-08-18T05:22:28.734Z,19.98
2022-08-18T05:23:36.447Z,20.09
2022-08-18T05:24:40.141Z,20.20
2022-08-18T05:25:44.390Z,20.30
2022-08-18T05:26:49.043Z,20.41
2022-08-18T05:27:56.348Z,20.51
2022-08-18T05:29:17.798Z,20.62
2022-08-18T05:30:23.621Z,20.75
2022-08-18T05:31:29.918Z,20.86
2022-08-18T05:32:46.866Z,20.96
2022-08-18T05:33:55.989Z,21.13
2022-08-18T05:34:59.978Z,21.31
2022-08-18T05:36:06.239Z,21.54
2022-08-18T05:37:20.708Z,21.78
2022-08-18T05:38:35.017Z,22.04
2022-08-18T05:39:44.602Z,22.28
2022-08-18T05:41:01.021Z,22.54
2022-08-18T05:42:20.327Z,22.82
2022-08-18T05:43:24.868Z,23.04
2022-08-18T05:44:29.852Z,23.26
2022-08-18T05:45:35.051Z,23.45
2022-08-18T05:46:45.716Z,23.68
2022-08-18T05:47:50.923Z,23.91
2022-08-18T05:48:55.568Z,24.10
2022-08-18T05:50:04.940Z,24.31
2022-08-18T05:51:19.039Z,24.53
2022-08-18T05:52:26.373Z,24.71
2022-08-18T05:53:44.730Z,24.90
2022-08-18T05:55:08.366Z,25.10
2022-08-18T05:56:31.019Z,25.36
2022-08-18T05:57:40.871Z,25.60
2022-08-18T05:58:48.811Z,25.79
2022-08-18T05:59:54.516Z,26.00
2022-08-18T06:01:01.812Z,26.20
2022-08-18T06:02:10.488Z,26.43
2022-08-18T06:03:21.064Z,26.61
2022-08-18T06:04:35.096Z,26.82
2022-08-18T06:05:45.033Z,26.99
2022-08-18T06:06:51.352Z,27.12
2022-08-18T06:07:57.550Z,27.26
2022-08-18T06:09:06.273Z,27.38
2022-08-18T06:10:11.938Z,27.50
2022-08-18T06:11:17.415Z,27.62
2022-08-18T06:12:29.952Z,27.73
2022-08-18T06:13:39.511Z,27.86
2022-08-18T06:14:44.252Z,28.01
2022-08-18T06:15:54.627Z,28.18
2022-08-18T06:17:03.798Z,28.30
2022-08-18T06:18:21.358Z,28.39
2022-08-18T06:19:36.541Z,28.48
2022-08-18T06:20:50.890Z,28.51
2022-08-18T06:22:02.768Z,28.58
2022-08-18T06:23:18.970Z,28.64
2022-08-18T06:24:30.104Z,28.70
2022-08-18T06:25:38.560Z,28.78
2022-08-18T06:26:49.017Z,28.91
2022-08-18T06:27:56.866Z,29.00
2022-08-18T06:29:10.080Z,29.10
2022-08-18T06:30:17.958Z,29.18
2022-08-18T06:31:29.484Z,29.23
2022-08-18T06:32:49.198Z,29.33
2022-08-18T06:34:06.022Z,29.41
2022-08-18T06:35:21.192Z,29.44
2022-08-18T06:36:33.447Z,29.46
2022-08-18T06:38:12.829Z,29.52
2022-08-18T06:39:22.671Z,29.58
2022-08-18T06:40:25.854Z,29.66
2022-08-18T06:41:41.618Z,29.76
2022-08-18T06:42:48.789Z,29.85
2022-08-18T06:44:00.490Z,29.93
2022-08-18T06:45:08.661Z,30.02
2022-08-18T06:46:18.667Z,30.10
2022-08-18T06:47:30.379Z,30.20
2022-08-18T06:48:40.509Z,30.32
2022-08-18T06:49:51.590Z,30.35
2022-08-18T06:51:01.120Z,30.26
2022-08-18T06:52:23.784Z,30.13
2022-08-18T06:53:51.849Z,30.08
2022-08-18T06:54:58.248Z,30.11
2022-08-18T06:56:26.224Z,30.23
2022-08-18T06:57:34.901Z,30.26
2022-08-18T06:58:38.250Z,30.27
2022-08-18T06:59:42.652Z,30.30
2022-08-18T07:00:56.685Z,30.40
2022-08-18T07:02:03.110Z,30.53
2022-08-18T07:03:08.319Z,30.68
2022-08-18T07:04:32.616Z,30.86
2022-08-18T07:05:39.299Z,30.99
2022-08-18T07:06:42.359Z,31.09
2022-08-18T07:07:46.896Z,31.18
2022-08-18T07:08:51.744Z,31.19
2022-08-18T07:09:56.995Z,31.23
2022-08-18T07:11:14.346Z,31.28
2022-08-18T07:12:26.717Z,31.34
2022-08-18T07:13:40.680Z,31.42
2022-08-18T07:14:49.198Z,31.51
2022-08-18T07:15:55.393Z,31.62
2022-08-18T07:17:09.019Z,31.69
2022-08-18T07:18:14.942Z,31.67
2022-08-18T07:19:20.968Z,31.73
2022-08-18T07:20:26.711Z,31.83
2022-08-18T07:21:34.284Z,31.97
2022-08-18T07:22:56.316Z,32.04
2022-08-18T07:24:23.247Z,32.07
2022-08-18T07:25:28.069Z,32.07
2022-08-18T07:26:47.871Z,32.07
2022-08-18T07:27:56.514Z,32.03
2022-08-18T07:29:14.892Z,31.98
2022-08-18T07:30:30.719Z,31.98
2022-08-18T07:31:39.756Z,32.00
2022-08-18T07:32:47.461Z,32.08
2022-08-18T07:33:56.483Z,32.18
2022-08-18T07:35:03.830Z,32.26
2022-08-18T07:36:10.109Z,32.34
2022-08-18T07:37:22.845Z,32.31
2022-08-18T07:38:42.523Z,32.25
2022-08-18T07:39:51.241Z,32.14
2022-08-18T07:40:58.454Z,32.07
2022-08-18T07:42:04.736Z,32.02
2022-08-18T07:43:16.778Z,32.11
2022-08-18T07:44:24.836Z,32.26
2022-08-18T07:45:51.609Z,32.35
2022-08-18T07:46:59.889Z,32.50
2022-08-18T07:48:27.374Z,32.67
2022-08-18T07:49:36.080Z,32.82
2022-08-18T07:50:58.238Z,32.91
2022-08-18T07:52:16.383Z,32.86
2022-08-18T07:53:42.084Z,32.79
2022-08-18T07:54:54.606Z,32.71
2022-08-18T07:56:03.352Z,32.66
2022-08-18T07:57:19.632Z,32.72
2022-08-18T07:58:28.922Z,32.88
2022-08-18T07:59:38.099Z,33.11
2022-08-18T08:01:05.234Z,33.26
2022-08-18T08:02:22.546Z,33.27
2022-08-18T08:03:32.498Z,33.27
2022-08-18T08:04:41.135Z,33.27
2022-08-18T08:05:51.765Z,33.20
2022-08-18T08:07:23.526Z,33.17
2022-08-18T08:08:32.608Z,33.18
2022-08-18T08:09:51.750Z,33.18
2022-08-18T08:11:09.508Z,33.27
2022-08-18T08:12:18.617Z,33.41
2022-08-18T08:13:51.326Z,33.56
2022-08-18T08:14:56.123Z,33.71
2022-08-18T08:16:04.847Z,33.69
2022-08-18T08:17:17.587Z,33.71
2022-08-18T08:18:31.758Z,33.73
2022-08-18T08:20:08.695Z,33.79
2022-08-18T08:21:17.807Z,33.98
2022-08-18T08:22:24.826Z,33.97
2022-08-18T08:23:32.435Z,33.91
2022-08-18T08:24:43.091Z,33.87
2022-08-18T08:25:57.200Z,33.79
2022-08-18T08:27:07.034Z,33.80
2022-08-18T08:28:22.113Z,33.75
2022-08-18T08:29:38.282Z,33.73
2022-08-18T08:30:48.577Z,33.90
2022-08-18T08:31:58.579Z,34.07
2022-08-18T08:33:10.076Z,34.23
2022-08-18T08:34:17.593Z,34.41
2022-08-18T08:35:48.561Z,34.59
2022-08-18T08:36:50.269Z,34.79
2022-08-18T08:38:08.230Z,35.01
2022-08-18T08:39:27.002Z,35.16
2022-08-18T08:40:38.488Z,35.16
2022-08-18T08:41:53.416Z,35.21
2022-08-18T08:43:20.708Z,35.19
2022-08-18T08:44:30.962Z,35.12
2022-08-18T08:45:38.267Z,35.02
2022-08-18T08:46:46.749Z,35.01
2022-08-18T08:48:09.412Z,34.97
2022-08-18T08:49:23.461Z,35.00
2022-08-18T08:50:29.901Z,35.15
2022-08-18T08:51:37.953Z,35.35
2022-08-18T08:52:45.495Z,35.37
2022-08-18T08:53:54.025Z,35.28
2022-08-18T08:55:02.914Z,35.34
2022-08-18T08:56:13.007Z,35.36
2022-08-18T08:57:18.248Z,35.34
2022-08-18T08:58:31.578Z,35.30
2022-08-18T08:59:39.808Z,35.27
2022-08-18T09:00:44.760Z,35.36
2022-08-18T09:01:55.444Z,35.45
2022-08-18T09:03:13.633Z,35.58
2022-08-18T09:04:24.218Z,35.70
2022-08-18T09:05:30.711Z,35.67
2022-08-18T09:06:44.419Z,35.59
2022-08-18T09:08:03.680Z,35.46
2022-08-18T09:09:19.368Z,35.46
2022-08-18T09:10:44.098Z,35.48
2022-08-18T09:12:12.170Z,35.38
2022-08-18T09:13:35.169Z,35.47
2022-08-18T09:15:11.568Z,35.51
2022-08-18T09:16:22.758Z,35.61
2022-08-18T09:17:50.897Z,35.77
2022-08-18T09:19:26.401Z,35.96
2022-08-18T09:20:48.607Z,35.97
2022-08-18T09:21:59.510Z,35.78
2022-08-18T09:23:06.749Z,35.64
2022-08-18T09:24:23.161Z,35.48
2022-08-18T09:25:48.133Z,35.40
2022-08-18T09:27:16.532Z,35.48
2022-08-18T09:28:21.767Z,35.57
2022-08-18T09:29:29.482Z,35.65
2022-08-18T09:30:47.445Z,35.84
2022-08-18T09:32:32.971Z,35.94
2022-08-18T09:33:57.613Z,36.08
2022-08-18T09:35:44.898Z,36.17
2022-08-18T09:37:03.852Z,36.16
2022-08-18T09:38:29.963Z,36.24
2022-08-18T09:39:55.114Z,36.32
2022-08-18T09:41:34.440Z,36.37
2022-08-18T09:44:12.083Z,36.63
2022-08-18T09:46:00.109Z,36.67
2022-08-18T09:47:04.360Z,36.72
2022-08-18T09:48:32.535Z,36.66
2022-08-18T09:49:51.108Z,36.55
2022-08-18T09:50:37.004Z,36.46
2022-08-18T09:51:01.652Z,36.58
2022-08-18T09:52:59.163Z,36.74
2022-08-18T09:54:21.137Z,36.88
2022-08-18T09:56:00.553Z,36.97
2022-08-18T09:57:24.759Z,37.00
2022-08-18T09:59:02.879Z,37.13
2022-08-18T10:00:29.497Z,37.20
2022-08-18T10:01:40.589Z,37.25
2022-08-18T10:03:14.580Z,37.02
2022-08-18T10:04:34.391Z,36.85
2022-08-18T10:05:37.582Z,36.82
2022-08-18T10:06:42.982Z,36.94
2022-08-18T10:07:53.753Z,37.13
2022-08-18T10:09:36.417Z,37.36
2022-08-18T10:11:00.464Z,37.47
2022-08-18T10:12:20.791Z,37.44
2022-08-18T10:13:29.900Z,37.32
2022-08-18T10:15:04.432Z,37.38
2022-08-18T10:16:17.310Z,37.47
2022-08-18T10:17:32.870Z,37.50
2022-08-18T10:18:53.037Z,37.52
2022-08-18T10:20:01.278Z,37.69
2022-08-18T10:21:12.909Z,37.96
2022-08-18T10:22:37.030Z,38.27
2022-08-18T10:24:14.704Z,38.43
2022-08-18T10:25:39.740Z,38.54
2022-08-18T10:27:11.069Z,38.42
2022-08-18T10:28:50.171Z,38.30
2022-08-18T10:29:56.398Z,38.27
2022-08-18T10:31:10.115Z,38.15
2022-08-18T10:32:38.570Z,38.08
2022-08-18T10:34:16.895Z,38.08
2022-08-18T10:35:57.678Z,38.24
2022-08-18T10:37:06.355Z,38.20
2022-08-18T10:38:13.239Z,38.16
2022-08-18T10:39:23.554Z,38.06
2022-08-18T10:40:27.203Z,38.09
2022-08-18T10:41:33.419Z,38.13
2022-08-18T10:42:42.108Z,38.12
2022-08-18T10:43:55.804Z,38.17
2022-08-18T10:45:09.651Z,38.17
2022-08-18T10:46:24.660Z,38.04
2022-08-18T10:47:33.462Z,37.94
2022-08-18T10:48:40.254Z,37.97
2022-08-18T10:49:50.640Z,37.90
2022-08-18T10:50:58.878Z,37.85
2022-08-18T10:52:18.096Z,37.82
2022-08-18T10:53:44.466Z,37.77
2022-08-18T10:55:23.271Z,37.63
2022-08-18T10:56:33.769Z,37.17
2022-08-18T10:57:47.063Z,36.92
2022-08-18T10:59:02.163Z,36.77
2022-08-18T11:00:10.821Z,36.63
2022-08-18T11:01:32.919Z,36.58
2022-08-18T11:03:39.913Z,36.49
2022-08-18T11:04:38.792Z,36.40
2022-08-18T11:05:43.157Z,36.18
2022-08-18T11:06:50.819Z,35.86
2022-08-18T11:08:00.811Z,35.64
2022-08-18T11:09:04.150Z,35.57
2022-08-18T11:10:58.078Z,35.70
2022-08-18T11:11:52.997Z,35.89
2022-08-18T11:13:09.831Z,36.10
2022-08-18T11:14:35.793Z,36.23
2022-08-18T11:15:50.614Z,36.49
2022-08-18T11:17:02.668Z,36.74
2022-08-18T11:18:18.620Z,36.74
2022-08-18T11:19:25.072Z,36.72
2022-08-18T11:20:31.679Z,36.71
2022-08-18T11:21:41.962Z,36.67
2022-08-18T11:22:55.527Z,36.79
2022-08-18T11:24:07.232Z,36.93
2022-08-18T11:25:24.081Z,37.11
2022-08-18T11:26:31.381Z,37.29
2022-08-18T11:27:36.982Z,37.41
2022-08-18T11:28:45.349Z,37.56
2022-08-18T11:29:50.158Z,37.81
2022-08-18T11:30:56.377Z,37.99
2022-08-18T11:32:10.994Z,38.18
2022-08-18T11:34:45.540Z,38.32
2022-08-18T11:35:58.779Z,38.33
2022-08-18T11:37:03.997Z,38.34
2022-08-18T11:38:23.285Z,38.52
2022-08-18T11:39:37.612Z,38.55
2022-08-18T11:42:15.944Z,38.58
2022-08-18T11:43:29.752Z,38.65
2022-08-18T11:44:42.483Z,38.64
2022-08-18T11:45:54.330Z,38.67
2022-08-18T11:47:14.770Z,38.69
2022-08-18T11:48:21.487Z,38.76
2022-08-18T11:49:34.079Z,38.71
2022-08-18T11:50:54.322Z,38.73
2022-08-18T11:52:02.356Z,38.78
2022-08-18T11:53:19.129Z,38.84
2022-08-18T11:54:50.666Z,38.94
2022-08-18T11:56:13.529Z,38.94
2022-08-18T11:57:46.527Z,38.93
2022-08-18T11:58:55.520Z,39.00
2022-08-18T12:01:41.925Z,39.21
2022-08-18T12:02:47.135Z,39.25
2022-08-18T12:03:51.524Z,39.36
2022-08-18T12:05:03.062Z,39.44
2022-08-18T12:06:20.303Z,39.42
2022-08-18T12:07:30.797Z,39.38
2022-08-18T12:10:26.260Z,39.48
2022-08-18T12:11:34.418Z,39.50
2022-08-18T12:12:46.707Z,39.47
2022-08-18T12:14:31.245Z,39.42
2022-08-18T12:15:46.689Z,39.43
2022-08-18T12:16:53.942Z,39.50
2022-08-18T12:17:58.888Z,39.57
2022-08-18T12:19:05.415Z,39.65
2022-08-18T12:20:16.430Z,39.70
2022-08-18T12:21:19.469Z,39.78
2022-08-18T12:22:28.081Z,39.80
2022-08-18T12:23:38.827Z,39.70
2022-08-18T12:24:54.962Z,39.55
2022-08-18T12:25:59.590Z,39.46
2022-08-18T12:28:28.960Z,39.62
2022-08-18T12:29:43.387Z,39.75
2022-08-18T12:30:48.518Z,40.02
2022-08-18T12:32:00.677Z,40.08
2022-08-18T12:33:12.059Z,40.03
2022-08-18T12:34:17.991Z,39.89
2022-08-18T12:35:28.382Z,39.77
2022-08-18T12:36:32.784Z,39.84
2022-08-18T12:39:02.770Z,40.19
2022-08-18T12:40:10.369Z,40.24
2022-08-18T12:41:18.611Z,40.19
2022-08-18T12:42:27.397Z,40.04
2022-08-18T12:43:32.116Z,40.05
2022-08-18T12:44:35.431Z,40.08
2022-08-18T12:45:40.531Z,40.07
2022-08-18T12:46:58.265Z,40.10
2022-08-18T12:49:29.668Z,40.07
2022-08-18T12:50:36.151Z,39.98
2022-08-18T12:51:50.335Z,40.02
2022-08-18T12:52:54.431Z,40.01
2022-08-18T12:54:00.432Z,40.09
2022-08-18T12:55:05.454Z,40.18
2022-08-18T12:56:13.737Z,40.21
2022-08-18T12:58:47.740Z,39.98
2022-08-18T12:59:52.436Z,39.97
2022-08-18T13:01:00.898Z,40.00
2022-08-18T13:02:07.586Z,39.86
2022-08-18T13:03:13.813Z,39.84
2022-08-18T13:04:18.514Z,39.80
2022-08-18T13:05:27.603Z,39.81
2022-08-18T13:06:34.222Z,39.97
2022-08-18T13:07:38.708Z,40.08
2022-08-18T13:08:48.044Z,40.22
2022-08-18T13:09:54.658Z,40.40
2022-08-18T13:11:15.194Z,40.58
2022-08-18T13:12:27.377Z,40.68
2022-08-18T13:13:31.238Z,40.74
2022-08-18T13:14:35.941Z,40.72
2022-08-18T13:15:39.672Z,40.68
2022-08-18T13:16:58.750Z,40.52
2022-08-18T13:18:03.084Z,40.47
2022-08-18T13:19:36.606Z,40.60
2022-08-18T13:20:41.248Z,40.54
2022-08-18T13:21:49.564Z,40.49
2022-08-18T13:22:52.800Z,40.39
2022-08-18T13:23:58.028Z,40.41
2022-08-18T13:25:05.470Z,40.49
2022-08-18T13:26:11.294Z,40.59
2022-08-18T13:27:18.596Z,40.78
2022-08-18T13:28:36.230Z,40.80
2022-08-18T13:29:58.627Z,40.82
2022-08-18T13:31:03.461Z,40.92
2022-08-18T13:32:09.771Z,41.08
2022-08-18T13:33:35.171Z,41.06
2022-08-18T13:34:41.118Z,40.89
2022-08-18T13:35:54.150Z,40.77
2022-08-18T13:36:58.660Z,40.69
2022-08-18T13:38:06.555Z,40.55
2022-08-18T13:39:22.512Z,40.39
2022-08-18T13:40:29.488Z,40.19
2022-08-18T13:41:33.556Z,39.83
2022-08-18T13:42:50.815Z,39.60
2022-08-18T13:43:54.436Z,39.62
2022-08-18T13:45:25.027Z,39.63
2022-08-18T13:46:30.001Z,39.54
2022-08-18T13:47:38.321Z,39.51
2022-08-18T13:48:42.909Z,39.40
2022-08-18T13:49:58.165Z,39.24
2022-08-18T13:51:05.625Z,39.07
2022-08-18T13:52:33.174Z,38.99
2022-08-18T13:53:50.395Z,39.04
2022-08-18T13:54:54.797Z,39.28
2022-08-18T13:56:00.183Z,39.48
2022-08-18T13:57:03.649Z,39.61
2022-08-18T13:58:17.582Z,39.80
2022-08-18T13:59:27.322Z,39.97
2022-08-18T14:00:31.419Z,40.13
2022-08-18T14:01:44.491Z,40.14
2022-08-18T14:02:57.434Z,40.14
2022-08-18T14:04:01.471Z,40.24
2022-08-18T14:05:07.730Z,40.34
2022-08-18T14:06:13.330Z,40.53
2022-08-18T14:07:27.380Z,40.76
2022-08-18T14:08:33.763Z,40.77
2022-08-18T14:09:38.566Z,40.68
2022-08-18T14:10:41.790Z,40.57
2022-08-18T14:11:51.105Z,40.38
2022-08-18T14:12:57.751Z,40.12
2022-08-18T14:14:01.817Z,40.00
2022-08-18T14:15:08.909Z,39.91
2022-08-18T14:16:18.611Z,39.92
2022-08-18T14:17:24.580Z,39.95
2022-08-18T14:18:31.174Z,39.86
2022-08-18T14:19:52.502Z,39.94
2022-08-18T14:21:14.858Z,40.09
2022-08-18T14:22:38.448Z,40.22
2022-08-18T14:24:02.944Z,40.18
2022-08-18T14:25:25.266Z,40.27
2022-08-18T14:26:50.031Z,40.34
2022-08-18T14:27:56.958Z,40.30
2022-08-18T14:29:01.391Z,40.18
2022-08-18T14:30:13.804Z,39.98
2022-08-18T14:31:20.787Z,39.87
2022-08-18T14:32:30.054Z,39.78
2022-08-18T14:33:51.659Z,39.57
2022-08-18T14:35:00.535Z,39.26
2022-08-18T14:36:09.489Z,38.99
2022-08-18T14:37:13.342Z,38.77
2022-08-18T14:38:19.099Z,38.54
2022-08-18T14:39:22.158Z,38.34
2022-08-18T14:40:28.053Z,38.27
2022-08-18T14:41:36.246Z,38.25
2022-08-18T14:42:54.063Z,38.15
2022-08-18T14:44:12.290Z,38.21
2022-08-18T14:45:27.720Z,38.20
2022-08-18T14:46:38.388Z,38.07
2022-08-18T14:47:44.577Z,37.91
2022-08-18T14:48:48.801Z,37.86
2022-08-18T14:49:51.928Z,37.89
2022-08-18T14:50:58.948Z,37.86
2022-08-18T14:52:03.675Z,37.83
2022-08-18T14:53:15.145Z,37.82
2022-08-18T14:54:20.033Z,37.91
2022-08-18T14:55:24.434Z,38.12
2022-08-18T14:56:29.857Z,38.23
2022-08-18T14:57:37.858Z,38.33
2022-08-18T14:58:41.230Z,38.33
2022-08-18T14:59:46.954Z,38.43
2022-08-18T15:00:54.228Z,38.60
2022-08-18T15:02:00.909Z,38.80
2022-08-18T15:03:07.716Z,38.95
2022-08-18T15:04:18.327Z,39.02
2022-08-18T15:05:24.367Z,39.06
2022-08-18T15:06:27.889Z,38.98
2022-08-18T15:07:32.719Z,38.92
2022-08-18T15:08:38.936Z,38.84
2022-08-18T15:09:47.239Z,38.65
2022-08-18T15:10:53.007Z,38.44
2022-08-18T15:11:56.766Z,38.25
2022-08-18T15:13:01.983Z,38.13
2022-08-18T15:14:05.300Z,37.99
2022-08-18T15:15:17.745Z,37.87
2022-08-18T15:16:22.721Z,37.85
2022-08-18T15:17:38.290Z,37.92
2022-08-18T15:18:42.742Z,38.05
2022-08-18T15:19:58.517Z,38.10
2022-08-18T15:21:35.047Z,38.14
2022-08-18T15:23:01.132Z,38.13
2022-08-18T15:24:26.268Z,38.12